Time;durP1;ratioP1;P1;durP2;ratioP2;P2;SDS_P1;SDS_P2;PMS_P1;PMS_P2;Temp;Humidity;BMP_temperature;BMP_pressure;BME280_temperature;BME280_humidity;BME280_pressure;Samples;Min_cycle;Max_cycle;Signal;HPM_P1;HPM_P2
2023/07/26 00:00:43;;;;;;;5.00;4.40;;;;;;;20.27;100.00;97491.90;109360;1254;61772;-71
2023/07/26 00:03:10;;;;;;;7.10;5.00;;;;;;;20.34;100.00;97492.83;109400;1252;59590;-71
2023/07/26 00:05:38;;;;;;;5.70;5.20;;;;;;;20.37;100.00;97500.27;109457;1252;73762;-71
2023/07/26 00:08:06;;;;;;;6.50;5.00;;;;;;;20.39;100.00;97500.84;109416;1253;68087;-70
2023/07/26 00:10:33;;;;;;;6.70;6.00;;;;;;;20.41;100.00;97503.75;109415;1254;72686;-70
2023/07/26 00:13:00;;;;;;;8.50;5.40;;;;;;;20.42;100.00;97505.47;109422;1253;61682;-70
2023/07/26 00:15:28;;;;;;;5.90;5.40;;;;;;;20.43;100.00;97502.44;109391;1254;60080;-71
2023/07/26 00:17:55;;;;;;;5.70;5.20;;;;;;;20.43;100.00;97486.40;109395;1254;73422;-70
2023/07/26 00:20:23;;;;;;;9.20;5.60;;;;;;;20.40;100.00;97476.04;109521;1254;67906;-71
2023/07/26 00:22:50;;;;;;;7.50;5.70;;;;;;;20.35;100.00;97477.00;109364;1254;71899;-70
2023/07/26 00:25:17;;;;;;;7.60;5.10;;;;;;;20.27;100.00;97476.08;109419;1253;60829;-69
2023/07/26 00:27:45;;;;;;;7.00;4.90;;;;;;;20.20;100.00;97477.98;109467;1253;59012;-70
2023/07/26 00:30:13;;;;;;;6.40;4.70;;;;;;;20.13;100.00;97484.52;109319;1254;76157;-70
2023/07/26 00:32:41;;;;;;;5.80;4.50;;;;;;;20.06;100.00;97488.88;109399;1253;67803;-71
2023/07/26 00:35:11;;;;;;;7.20;4.90;;;;;;;20.01;100.00;97495.64;109355;1254;72656;-70
2023/07/26 00:37:39;;;;;;;4.90;4.20;;;;;;;19.97;100.00;97507.38;109141;1254;60411;-70
2023/07/26 00:40:07;;;;;;;7.90;4.50;;;;;;;19.95;100.00;97508.95;109389;1252;60901;-70
2023/07/26 00:42:34;;;;;;;4.60;4.10;;;;;;;19.93;100.00;97509.29;109405;1253;73554;-70
2023/07/26 00:45:02;;;;;;;6.70;4.70;;;;;;;19.92;100.00;97503.63;109467;1253;66623;-70
2023/07/26 00:47:30;;;;;;;6.80;4.50;;;;;;;19.91;100.00;97495.96;109474;1253;72696;-70
2023/07/26 00:49:58;;;;;;;6.70;4.20;;;;;;;19.87;100.00;97491.77;109265;1254;61821;-70
2023/07/26 00:52:25;;;;;;;3.80;3.50;;;;;;;19.82;100.00;97485.60;109436;1254;58949;-71
2023/07/26 00:54:55;;;;;;;4.00;3.50;;;;;;;19.78;100.00;97483.71;109192;1254;74727;-71
2023/07/26 00:57:23;;;;;;;3.30;3.00;;;;;;;19.72;100.00;97483.95;109393;1253;66298;-70
2023/07/26 00:59:50;;;;;;;5.60;3.90;;;;;;;19.65;100.00;97480.05;109455;1254;71807;-70
2023/07/26 01:02:17;;;;;;;4.80;3.50;;;;;;;19.63;100.00;97473.81;109330;1254;60408;-70
2023/07/26 01:04:45;;;;;;;5.00;3.20;;;;;;;19.62;100.00;97472.57;109465;1253;58977;-71
2023/07/26 01:07:20;;;;;;;3.50;3.20;;;;;;;19.61;100.00;97488.27;109387;1254;74661;-70
2023/07/26 01:09:52;;;;;;;4.10;3.20;;;;;;;19.59;100.00;97493.46;109132;1254;67695;-70
2023/07/26 01:12:22;;;;;;;3.60;3.30;;;;;;;19.57;100.00;97491.63;109437;1254;72323;-71
2023/07/26 01:15:03;;;;;;;3.40;3.00;;;;;;;19.52;100.00;97498.55;109322;1253;60458;-71
2023/07/26 01:17:31;;;;;;;3.30;2.80;;;;;;;19.49;100.00;97498.08;109429;1253;59997;-71
2023/07/26 01:19:58;;;;;;;2.70;2.50;;;;;;;19.46;100.00;97488.05;109338;1254;74592;-71
2023/07/26 01:22:25;;;;;;;5.70;2.60;;;;;;;19.43;100.00;97487.52;109363;1254;67666;-71
2023/07/26 01:24:53;;;;;;;2.50;2.30;;;;;;;19.38;100.00;97489.95;109354;1253;72769;-71
2023/07/26 01:27:20;;;;;;;3.70;2.60;;;;;;;19.32;100.00;97488.33;109364;1254;61682;-70
2023/07/26 01:29:51;;;;;;;3.60;2.20;;;;;;;19.29;100.00;97497.19;109257;1253;60062;-70
2023/07/26 01:32:18;;;;;;;2.30;2.00;;;;;;;19.29;100.00;97505.05;109369;1254;74682;-70
2023/07/26 01:34:46;;;;;;;3.00;2.60;;;;;;;19.33;100.00;97502.89;109137;1253;66878;-70
2023/07/26 01:37:13;;;;;;;3.00;2.60;;;;;;;19.40;100.00;97509.27;109461;1253;72673;-71
2023/07/26 01:39:41;;;;;;;3.20;2.80;;;;;;;19.43;100.00;97512.48;109134;1252;60855;-71
2023/07/26 01:42:09;;;;;;;4.80;2.50;;;;;;;19.44;100.00;97514.48;109277;1253;58999;-70
2023/07/26 01:44:37;;;;;;;6.10;3.30;;;;;;;19.46;100.00;97521.91;109447;1253;74623;-70
2023/07/26 01:47:05;;;;;;;4.80;3.60;;;;;;;19.47;100.00;97533.52;109422;1254;66874;-70
2023/07/26 01:49:33;;;;;;;4.20;3.90;;;;;;;19.47;100.00;97540.30;109430;1253;71444;-70
2023/07/26 01:52:00;;;;;;;5.10;4.70;;;;;;;19.48;100.00;97549.53;109315;1254;60825;-70
2023/07/26 01:54:29;;;;;;;4.90;4.50;;;;;;;19.48;100.00;97559.34;109539;1252;60066;-71
2023/07/26 01:56:56;;;;;;;5.70;5.00;;;;;;;19.47;100.00;97571.44;109374;1253;73464;-70
2023/07/26 01:59:24;;;;;;;5.50;4.90;;;;;;;19.47;100.00;97574.17;109436;1253;66263;-70
2023/07/26 02:01:51;;;;;;;12.10;10.30;;;;;;;19.49;100.00;97583.92;109263;1257;71393;-70
2023/07/26 02:04:20;;;;;;;13.30;10.80;;;;;;;19.50;100.00;97594.02;109267;1257;62134;-70
2023/07/26 02:06:48;;;;;;;13.10;11.50;;;;;;;19.49;100.00;97601.25;109300;1253;59046;-71
2023/07/26 02:09:15;;;;;;;16.00;12.80;;;;;;;19.50;100.00;97615.70;109404;1253;73426;-69
2023/07/26 02:11:43;;;;;;;16.00;12.20;;;;;;;19.49;100.00;97625.35;109371;1253;67847;-70
2023/07/26 02:14:10;;;;;;;15.60;12.00;;;;;;;19.48;100.00;97631.55;109328;1253;71413;-70
2023/07/26 02:16:37;;;;;;;21.40;16.00;;;;;;;19.47;100.00;97640.56;109311;1254;61666;-72
2023/07/26 02:19:05;;;;;;;24.90;16.20;;;;;;;19.47;100.00;97656.81;109450;1252;58913;-71
2023/07/26 02:21:33;;;;;;;20.90;14.00;;;;;;;19.45;100.00;97667.05;109401;1254;74715;-71
2023/07/26 02:24:00;;;;;;;10.10;8.10;;;;;;;19.44;100.00;97675.02;109477;1253;68032;-71
2023/07/26 02:26:28;;;;;;;9.30;6.10;;;;;;;19.40;100.00;97680.30;109399;1253;72668;-71
2023/07/26 02:28:57;;;;;;;7.90;5.40;;;;;;;19.42;100.00;97685.59;109293;1253;61722;-71
2023/07/26 02:31:24;;;;;;;4.70;3.80;;;;;;;19.45;100.00;97689.21;109436;1253;60119;-69
2023/07/26 02:33:52;;;;;;;3.70;3.30;;;;;;;19.45;100.00;97692.92;109373;1253;74557;-71
2023/07/26 02:36:19;;;;;;;3.40;3.10;;;;;;;19.44;100.00;97687.23;109461;1252;67900;-70
2023/07/26 02:38:46;;;;;;;6.40;3.50;;;;;;;19.40;100.00;97676.05;109292;1253;72698;-71
2023/07/26 02:41:14;;;;;;;3.40;2.90;;;;;;;19.37;100.00;97672.10;109353;1253;61831;-71
2023/07/26 02:43:41;;;;;;;3.40;2.80;;;;;;;19.34;100.00;97669.17;109499;1252;58930;-70
2023/07/26 02:46:09;;;;;;;3.50;3.10;;;;;;;19.31;100.00;97673.27;109369;1253;74699;-70
2023/07/26 02:48:37;;;;;;;3.70;3.30;;;;;;;19.27;100.00;97682.06;109331;1253;66652;-70
2023/07/26 02:51:04;;;;;;;3.90;3.20;;;;;;;19.24;100.00;97690.67;109317;1253;72571;-70
2023/07/26 02:53:32;;;;;;;2.90;2.70;;;;;;;19.20;100.00;97696.45;109355;1253;60945;-70
2023/07/26 02:55:59;;;;;;;4.90;3.30;;;;;;;19.15;100.00;97696.65;109323;1253;59977;-71
2023/07/26 02:58:27;;;;;;;5.40;3.30;;;;;;;19.08;100.00;97706.23;109359;1253;74723;-72
2023/07/26 03:00:55;;;;;;;8.00;4.20;;;;;;;19.04;100.00;97705.64;109371;1253;66341;-71
2023/07/26 03:03:22;;;;;;;3.20;2.90;;;;;;;19.06;100.00;97703.11;109414;1253;71824;-71
2023/07/26 03:05:50;;;;;;;4.30;2.90;;;;;;;19.09;100.00;97708.34;109390;1254;61722;-71
2023/07/26 03:08:17;;;;;;;4.70;3.40;;;;;;;19.12;100.00;97706.88;109340;1253;59967;-71
2023/07/26 03:10:45;;;;;;;6.40;3.10;;;;;;;19.16;100.00;97705.61;109488;1253;73935;-72
2023/07/26 03:13:12;;;;;;;2.80;2.60;;;;;;;19.21;100.00;97704.31;109327;1254;66456;-69
2023/07/26 03:15:40;;;;;;;3.50;3.20;;;;;;;19.22;100.00;97699.52;109462;1252;72662;-70
2023/07/26 03:18:08;;;;;;;4.50;3.20;;;;;;;19.24;100.00;97702.36;109362;1253;61718;-71
2023/07/26 03:20:35;;;;;;;3.90;3.50;;;;;;;19.28;100.00;97708.90;109446;1252;58896;-71
2023/07/26 03:23:03;;;;;;;3.30;2.90;;;;;;;19.29;100.00;97712.36;109401;1253;74613;-71
2023/07/26 03:25:30;;;;;;;3.40;3.10;;;;;;;19.30;100.00;97714.73;109307;1253;66632;-70
2023/07/26 03:27:58;;;;;;;7.00;3.60;;;;;;;19.29;100.00;97715.39;109264;1253;72625;-71
2023/07/26 03:30:25;;;;;;;3.70;3.30;;;;;;;19.29;100.00;97720.24;109381;1254;60442;-70
2023/07/26 03:32:53;;;;;;;4.00;3.60;;;;;;;19.30;100.00;97728.05;109280;1253;60761;-70
2023/07/26 03:35:20;;;;;;;4.20;3.20;;;;;;;19.32;100.00;97738.41;109458;1253;74606;-71
2023/07/26 03:37:47;;;;;;;3.90;3.60;;;;;;;19.36;100.00;97743.71;109402;1254;67907;-69
2023/07/26 03:40:15;;;;;;;4.70;4.30;;;;;;;19.39;100.00;97740.28;109340;1253;72657;-71
2023/07/26 03:42:42;;;;;;;7.40;3.30;;;;;;;19.38;100.00;97738.98;109399;1253;61335;-70
2023/07/26 03:45:10;;;;;;;3.50;3.20;;;;;;;19.39;100.00;97743.30;109317;1253;58973;-70
2023/07/26 03:47:37;;;;;;;3.60;3.10;;;;;;;19.41;100.00;97743.30;109412;1253;73591;-70
2023/07/26 03:50:05;;;;;;;4.00;3.40;;;;;;;19.43;100.00;97748.69;109356;1253;67566;-70
2023/07/26 03:52:33;;;;;;;3.70;3.40;;;;;;;19.47;100.00;97757.16;109400;1253;72718;-71
2023/07/26 03:55:01;;;;;;;3.70;3.40;;;;;;;19.49;100.00;97757.91;109370;1254;61553;-71
2023/07/26 03:57:30;;;;;;;3.90;3.50;;;;;;;19.48;100.00;97758.52;109486;1252;60009;-71
2023/07/26 03:59:57;;;;;;;3.40;3.10;;;;;;;19.47;100.00;97759.48;109319;1253;75510;-71
2023/07/26 04:02:25;;;;;;;3.20;2.90;;;;;;;19.48;100.00;97764.93;109366;1253;66273;-69
2023/07/26 04:04:53;;;;;;;3.50;2.90;;;;;;;19.49;100.00;97773.23;109402;1253;72664;-72
2023/07/26 04:07:20;;;;;;;3.30;3.00;;;;;;;19.50;100.00;97772.27;109459;1252;60729;-70
2023/07/26 04:09:47;;;;;;;3.70;3.30;;;;;;;19.48;100.00;97773.13;109457;1252;59998;-70
2023/07/26 04:12:15;;;;;;;3.30;2.70;;;;;;;19.49;100.00;97774.21;109342;1252;74454;-71
2023/07/26 04:14:42;;;;;;;3.50;3.20;;;;;;;19.51;100.00;97775.13;109378;1253;66458;-70
2023/07/26 04:17:09;;;;;;;3.90;3.60;;;;;;;19.51;100.00;97777.40;109403;1254;72682;-70
2023/07/26 04:19:37;;;;;;;3.70;3.40;;;;;;;19.50;100.00;97779.70;109340;1254;60393;-70
2023/07/26 04:22:04;;;;;;;4.70;3.20;;;;;;;19.53;100.00;97777.08;109421;1254;58927;-70
2023/07/26 04:24:33;;;;;;;3.30;3.00;;;;;;;19.55;100.00;97776.48;109363;1253;74618;-69
2023/07/26 04:27:01;;;;;;;3.90;3.50;;;;;;;19.57;100.00;97769.90;109332;1252;66363;-70
2023/07/26 04:29:28;;;;;;;4.90;3.20;;;;;;;19.59;100.00;97763.16;109374;1253;71294;-70
2023/07/26 04:31:56;;;;;;;7.80;3.60;;;;;;;19.58;100.00;97756.90;109260;1254;61711;-69
2023/07/26 04:34:23;;;;;;;6.60;4.20;;;;;;;19.59;100.00;97758.95;109368;1253;60169;-70
2023/07/26 04:36:50;;;;;;;6.70;3.60;;;;;;;19.59;100.00;97753.30;109388;1253;73755;-71
2023/07/26 04:39:18;;;;;;;3.90;3.50;;;;;;;19.61;100.00;97754.70;109411;1253;67692;-70
2023/07/26 04:41:45;;;;;;;3.90;3.60;;;;;;;19.62;100.00;97749.52;109445;1252;72677;-69
2023/07/26 04:44:12;;;;;;;4.30;3.90;;;;;;;19.64;100.00;97755.73;109474;1252;61645;-70
2023/07/26 04:46:40;;;;;;;4.50;3.80;;;;;;;19.74;100.00;97758.09;109421;1253;60012;-69
2023/07/26 04:49:07;;;;;;;4.80;3.50;;;;;;;19.86;100.00;97759.61;109349;1252;75112;-69
2023/07/26 04:51:35;;;;;;;4.80;4.10;;;;;;;20.05;100.00;97762.06;109356;1254;67725;-69
2023/07/26 04:54:02;;;;;;;4.10;3.60;;;;;;;20.30;100.00;97760.32;109463;1252;71405;-69
2023/07/26 04:56:31;;;;;;;3.80;3.40;;;;;;;20.49;100.00;97748.02;109298;1253;61755;-69
2023/07/26 04:58:59;;;;;;;7.70;3.60;;;;;;;20.67;100.00;97748.77;109375;1252;60043;-69
2023/07/26 05:01:26;;;;;;;6.20;4.30;;;;;;;20.80;100.00;97749.46;109372;1253;73428;-71
2023/07/26 05:03:53;;;;;;;4.30;3.30;;;;;;;20.89;100.00;97745.96;109413;1253;67647;-70
2023/07/26 05:06:21;;;;;;;3.40;3.00;;;;;;;21.00;100.00;97741.75;109376;1252;72667;-70
2023/07/26 05:08:49;;;;;;;4.60;3.20;;;;;;;21.12;100.00;97734.89;109382;1253;60851;-70
2023/07/26 05:11:20;;;;;;;3.40;3.00;;;;;;;21.25;100.00;97728.31;109364;1253;60419;-70
2023/07/26 05:13:47;;;;;;;3.70;3.20;;;;;;;21.35;100.00;97727.27;109379;1254;73430;-71
2023/07/26 05:16:14;;;;;;;2.90;2.60;;;;;;;21.40;100.00;97729.13;109449;1253;66446;-72
2023/07/26 05:18:42;;;;;;;5.30;3.40;;;;;;;21.33;100.00;97738.32;109332;1253;72939;-71
2023/07/26 05:21:09;;;;;;;3.30;3.00;;;;;;;21.29;100.00;97742.30;109352;1253;62188;-71
2023/07/26 05:23:36;;;;;;;5.50;3.40;;;;;;;21.22;100.00;97746.25;109379;1253;59778;-71
2023/07/26 05:26:04;;;;;;;3.70;3.20;;;;;;;21.16;100.00;97759.32;109348;1253;74024;-70
2023/07/26 05:28:31;;;;;;;3.90;3.00;;;;;;;21.09;100.00;97763.94;109383;1253;67581;-71
2023/07/26 05:30:59;;;;;;;5.90;3.20;;;;;;;21.09;100.00;97767.09;109519;1253;72771;-71
2023/07/26 05:33:26;;;;;;;3.90;3.60;;;;;;;21.11;100.00;97761.66;109398;1253;61697;-70
2023/07/26 05:35:53;;;;;;;4.90;3.90;;;;;;;21.11;100.00;97759.34;109460;1252;58954;-70
2023/07/26 05:38:21;;;;;;;5.60;4.00;;;;;;;21.05;100.00;97756.70;109436;1252;73712;-70
2023/07/26 05:40:48;;;;;;;3.30;3.00;;;;;;;21.01;100.00;97765.58;109432;1252;66442;-71
2023/07/26 05:43:17;;;;;;;10.70;3.60;;;;;;;21.04;100.00;97773.40;109349;1253;72756;-70
2023/07/26 05:45:45;;;;;;;8.90;3.60;;;;;;;21.13;100.00;97773.81;109384;1254;60862;-70
2023/07/26 05:48:12;;;;;;;5.10;3.20;;;;;;;21.20;100.00;97768.59;109477;1252;60616;-69
2023/07/26 05:50:40;;;;;;;5.60;3.60;;;;;;;21.25;100.00;97771.64;109459;1252;73461;-69
2023/07/26 05:53:08;;;;;;;4.10;3.00;;;;;;;21.26;100.00;97779.42;109478;1252;67759;-69
2023/07/26 05:55:35;;;;;;;3.50;3.20;;;;;;;21.25;100.00;97789.04;109417;1253;72708;-71
2023/07/26 05:58:03;;;;;;;6.10;3.10;;;;;;;21.24;100.00;97792.85;109351;1253;61684;-70
2023/07/26 06:00:31;;;;;;;6.50;3.50;;;;;;;21.27;100.00;97800.45;109439;1253;58914;-72
2023/07/26 06:02:58;;;;;;;5.70;3.60;;;;;;;21.27;100.00;97808.15;109394;1252;75265;-69
2023/07/26 06:05:27;;;;;;;3.60;3.00;;;;;;;21.33;100.00;97811.14;109364;1253;67629;-69
2023/07/26 06:07:54;;;;;;;3.70;3.20;;;;;;;21.37;100.00;97813.11;109347;1253;72720;-69
2023/07/26 06:10:21;;;;;;;3.90;2.90;;;;;;;21.42;100.00;97813.67;109356;1253;61650;-69
2023/07/26 06:12:49;;;;;;;4.10;3.00;;;;;;;21.47;100.00;97812.67;109433;1254;59242;-69
2023/07/26 06:15:16;;;;;;;5.50;3.60;;;;;;;21.52;100.00;97811.17;109269;1253;73404;-70
2023/07/26 06:17:43;;;;;;;4.70;4.20;;;;;;;21.56;100.00;97815.33;109424;1253;68506;-69
2023/07/26 06:20:11;;;;;;;3.80;3.50;;;;;;;21.60;100.00;97809.95;109340;1252;72677;-68
2023/07/26 06:22:39;;;;;;;10.30;3.90;;;;;;;21.65;100.00;97806.82;109368;1253;59189;-70
2023/07/26 06:25:06;;;;;;;6.50;4.30;;;;;;;21.72;100.00;97805.14;109255;1253;60020;-70
2023/07/26 06:27:34;;;;;;;4.80;4.30;;;;;;;21.74;100.00;97801.88;109515;1252;75108;-71
2023/07/26 06:30:01;;;;;;;4.10;3.40;;;;;;;21.70;100.00;97797.31;109364;1253;67942;-68
2023/07/26 06:32:29;;;;;;;3.50;3.20;;;;;;;21.67;100.00;97796.36;109379;1252;72782;-68
2023/07/26 06:34:57;;;;;;;4.10;3.60;;;;;;;21.65;100.00;97795.72;109308;1253;59729;-69
2023/07/26 06:37:24;;;;;;;5.60;3.60;;;;;;;21.71;100.00;97793.67;109417;1253;60128;-69
2023/07/26 06:39:51;;;;;;;4.70;3.50;;;;;;;21.80;100.00;97793.88;109517;1252;74645;-70
2023/07/26 06:42:19;;;;;;;4.20;3.50;;;;;;;21.88;100.00;97789.02;109348;1253;66832;-70
2023/07/26 06:44:55;;;;;;;3.90;3.60;;;;;;;21.91;100.00;97788.13;109431;1252;71071;-70
2023/07/26 06:47:22;;;;;;;4.30;3.70;;;;;;;21.98;100.00;97789.86;109382;1252;61687;-70
2023/07/26 06:49:49;;;;;;;3.60;3.20;;;;;;;22.07;100.00;97790.11;109473;1252;60021;-69
2023/07/26 06:52:17;;;;;;;4.30;3.70;;;;;;;22.24;100.00;97789.40;109383;1252;74655;-59
2023/07/26 06:54:44;;;;;;;7.60;3.80;;;;;;;22.46;100.00;97789.79;109343;1254;66404;-60
2023/07/26 06:57:11;;;;;;;5.90;3.80;;;;;;;22.68;100.00;97786.37;109204;1253;72727;-60
2023/07/26 06:59:39;;;;;;;9.00;4.10;;;;;;;22.88;100.00;97788.14;109424;1252;59030;-63
2023/07/26 07:02:06;;;;;;;4.80;3.90;;;;;;;23.13;100.00;97784.15;109399;1253;60032;-71
2023/07/26 07:04:34;;;;;;;4.10;3.70;;;;;;;23.39;100.00;97792.31;109369;1253;73367;-69
2023/07/26 07:07:02;;;;;;;5.00;4.20;;;;;;;23.58;100.00;97792.77;109471;1252;66757;-68
2023/07/26 07:09:29;;;;;;;6.40;4.60;;;;;;;23.68;100.00;97791.67;109336;1254;72723;-69
2023/07/26 07:11:56;;;;;;;6.30;5.70;;;;;;;23.72;100.00;97796.56;109315;1253;58901;-67
2023/07/26 07:14:24;;;;;;;8.30;5.20;;;;;;;23.76;100.00;97796.71;109375;1253;60110;-72
2023/07/26 07:16:51;;;;;;;6.50;4.40;;;;;;;23.82;100.00;97798.48;109420;1252;75030;-70
2023/07/26 07:19:19;;;;;;;10.60;6.40;;;;;;;23.87;100.00;97800.45;109493;1252;66303;-70
2023/07/26 07:21:46;;;;;;;9.20;7.10;;;;;;;23.88;100.00;97804.46;109400;1253;70693;-70
2023/07/26 07:24:14;;;;;;;11.60;6.40;;;;;;;23.83;100.00;97810.51;109427;1253;60109;-69
2023/07/26 07:26:41;;;;;;;5.10;4.50;;;;;;;23.77;100.00;97817.01;109400;1253;59109;-69
2023/07/26 07:29:08;;;;;;;5.10;4.60;;;;;;;23.72;100.00;97824.64;109476;1252;74774;-69
2023/07/26 07:31:36;;;;;;;6.60;4.10;;;;;;;23.61;100.00;97829.08;109390;1253;67883;-69
2023/07/26 07:34:04;;;;;;;6.40;3.60;;;;;;;23.49;100.00;97822.25;109321;1253;71114;-69
2023/07/26 07:36:31;;;;;;;4.00;3.70;;;;;;;23.36;100.00;97826.71;109414;1253;59104;-68
2023/07/26 07:38:59;;;;;;;4.30;3.90;;;;;;;23.18;100.00;97832.08;109478;1253;58962;-70
2023/07/26 07:41:26;;;;;;;4.30;3.90;;;;;;;22.98;100.00;97841.16;109306;1253;74019;-69
2023/07/26 07:43:53;;;;;;;4.10;3.70;;;;;;;22.83;100.00;97849.09;109338;1253;66459;-69
2023/07/26 07:46:21;;;;;;;6.10;3.50;;;;;;;22.75;100.00;97860.46;109370;1253;71713;-69
2023/07/26 07:48:49;;;;;;;4.50;3.20;;;;;;;22.69;100.00;97864.70;109390;1254;60069;-70
2023/07/26 07:51:16;;;;;;;5.30;3.80;;;;;;;22.67;100.00;97866.02;109444;1253;60046;-69
2023/07/26 07:53:44;;;;;;;7.40;4.00;;;;;;;22.63;100.00;97868.86;109450;1253;74624;-68
2023/07/26 07:56:11;;;;;;;4.80;3.70;;;;;;;22.60;100.00;97875.00;109397;1255;67577;-69
2023/07/26 07:58:39;;;;;;;4.60;3.40;;;;;;;22.56;100.00;97882.47;109447;1253;72734;-69
2023/07/26 08:01:06;;;;;;;5.50;3.90;;;;;;;22.54;100.00;97882.59;109300;1253;61664;-69
2023/07/26 08:03:34;;;;;;;4.30;3.90;;;;;;;22.55;100.00;97884.86;109381;1253;60533;-69
2023/07/26 08:06:02;;;;;;;6.50;3.90;;;;;;;22.54;100.00;97886.55;109447;1253;74612;-69
2023/07/26 08:08:29;;;;;;;6.60;4.50;;;;;;;22.51;100.00;97884.63;109424;1254;67892;-69
2023/07/26 08:10:56;;;;;;;4.80;4.40;;;;;;;22.52;100.00;97884.11;109426;1253;72709;-69
2023/07/26 08:13:24;;;;;;;5.30;4.60;;;;;;;22.54;100.00;97893.91;109416;1253;59297;-69
2023/07/26 08:15:51;;;;;;;6.30;5.30;;;;;;;22.61;100.00;97894.84;109397;1252;58874;-68
2023/07/26 08:18:19;;;;;;;4.80;4.40;;;;;;;22.68;100.00;97881.18;109400;1253;73379;-69
2023/07/26 08:20:46;;;;;;;7.10;5.10;;;;;;;22.73;100.00;97880.15;109339;1253;66350;-70
2023/07/26 08:23:14;;;;;;;5.30;4.90;;;;;;;22.79;100.00;97884.65;109485;1253;72850;-69
2023/07/26 08:25:42;;;;;;;4.70;4.30;;;;;;;22.87;100.00;97886.03;109341;1253;60095;-69
2023/07/26 08:28:09;;;;;;;4.70;4.30;;;;;;;22.97;100.00;97889.67;109449;1253;58889;-70
2023/07/26 08:30:37;;;;;;;8.40;4.50;;;;;;;23.05;100.00;97889.61;109476;1253;73358;-70
2023/07/26 08:33:04;;;;;;;10.80;4.90;;;;;;;23.15;100.00;97888.70;109458;1253;66814;-69
2023/07/26 08:35:32;;;;;;;9.50;4.60;;;;;;;23.33;100.00;97894.95;109391;1253;71444;-68
2023/07/26 08:38:00;;;;;;;5.20;4.70;;;;;;;23.55;100.00;97898.70;109379;1252;60238;-70
2023/07/26 08:40:27;;;;;;;5.30;4.80;;;;;;;23.90;100.00;97895.77;109402;1253;58954;-70
2023/07/26 08:42:56;;;;;;;6.00;5.50;;;;;;;24.59;100.00;97893.71;109418;1252;73374;-73
2023/07/26 08:45:23;;;;;;;6.80;5.60;;;;;;;25.32;100.00;97892.36;109424;1254;66352;-69
2023/07/26 08:47:51;;;;;;;8.00;4.80;;;;;;;25.80;100.00;97893.20;109320;1253;72661;-69
2023/07/26 08:50:19;;;;;;;5.20;4.50;;;;;;;26.18;100.00;97893.70;109276;1253;58937;-68
2023/07/26 08:52:46;;;;;;;5.00;4.10;;;;;;;26.88;100.00;97891.12;109381;1253;60127;-69
2023/07/26 08:55:13;;;;;;;7.10;4.60;;;;;;;27.81;100.00;97891.39;109418;1253;75187;-69
2023/07/26 08:57:41;;;;;;;9.20;4.30;;;;;;;28.79;100.00;97892.77;109398;1253;67605;-69
2023/07/26 09:00:11;;;;;;;4.30;3.90;;;;;;;29.51;100.00;97882.20;109160;1253;72744;-69
2023/07/26 09:02:38;;;;;;;6.00;3.90;;;;;;;30.12;100.00;97880.44;109425;1254;61223;-69
2023/07/26 09:05:06;;;;;;;4.60;4.20;;;;;;;30.27;100.00;97878.95;109416;1254;60067;-69
2023/07/26 09:07:34;;;;;;;8.00;4.40;;;;;;;30.02;100.00;97872.94;109395;1252;74017;-69
2023/07/26 09:10:01;;;;;;;5.20;4.30;;;;;;;30.01;100.00;97874.60;109388;1254;67581;-68
2023/07/26 09:12:29;;;;;;;4.60;4.10;;;;;;;30.45;99.77;97872.31;109407;1252;71630;-69
2023/07/26 09:14:57;;;;;;;4.80;4.40;;;;;;;30.75;94.70;97869.88;109352;1254;60095;-69
2023/07/26 09:17:40;;;;;;;5.40;4.20;;;;;;;30.53;92.33;97876.30;109445;1253;60451;-68
2023/07/26 09:20:21;;;;;;;9.80;3.70;;;;;;;30.10;93.10;97873.95;109471;1253;74757;-68
2023/07/26 09:22:57;;;;;;;5.40;4.00;;;;;;;29.83;95.07;97876.05;109458;1252;67649;-68
2023/07/26 09:25:37;;;;;;;4.70;3.70;;;;;;;30.13;94.94;97877.08;109408;1254;72326;-68
2023/07/26 09:28:06;;;;;;;6.50;4.20;;;;;;;30.78;92.59;97875.86;109387;1254;60126;-69
2023/07/26 09:30:36;;;;;;;4.60;4.30;;;;;;;31.42;88.54;97872.52;109467;1253;60108;-69
2023/07/26 09:33:05;;;;;;;6.00;4.70;;;;;;;32.05;83.86;97874.73;109470;1254;75673;-70
2023/07/26 09:35:53;;;;;;;10.80;4.80;;;;;;;32.31;77.30;97876.70;109427;1252;67950;-70
2023/07/26 09:38:24;;;;;;;5.10;4.60;;;;;;;31.87;76.34;97876.60;109449;1253;71458;-70
2023/07/26 09:40:52;;;;;;;4.70;3.50;;;;;;;31.44;77.08;97873.39;109504;1253;60328;-70
2023/07/26 09:43:29;;;;;;;4.50;4.10;;;;;;;31.30;75.88;97867.34;109433;1253;60050;-68
2023/07/26 09:46:01;;;;;;;4.20;3.80;;;;;;;30.88;75.30;97862.86;109405;1253;75678;-68
2023/07/26 09:48:33;;;;;;;5.80;4.30;;;;;;;30.39;76.53;97857.08;109436;1253;67828;-68
2023/07/26 09:51:05;;;;;;;4.80;3.50;;;;;;;30.01;79.08;97850.95;109403;1253;72454;-70
2023/07/26 09:53:35;;;;;;;4.40;3.40;;;;;;;29.71;81.27;97850.01;109398;1254;59361;-69
2023/07/26 09:56:03;;;;;;;8.60;3.70;;;;;;;29.38;84.11;97855.83;109297;1252;59415;-69
2023/07/26 09:58:30;;;;;;;4.20;3.80;;;;;;;29.13;85.95;97857.95;109460;1252;72915;-69
2023/07/26 10:00:58;;;;;;;3.00;2.80;;;;;;;28.90;87.14;97866.34;109216;1254;67710;-69
2023/07/26 10:03:25;;;;;;;4.50;3.40;;;;;;;28.62;88.39;97863.09;109241;1253;71207;-69
2023/07/26 10:05:55;;;;;;;4.00;3.70;;;;;;;28.34;88.70;97863.84;109278;1253;60178;-69
2023/07/26 10:08:22;;;;;;;4.10;3.80;;;;;;;27.96;89.36;97863.62;109269;1253;59418;-68
2023/07/26 10:10:50;;;;;;;7.10;3.80;;;;;;;27.67;91.93;97865.83;109406;1252;75283;-68
2023/07/26 10:13:18;;;;;;;7.50;5.40;;;;;;;27.46;95.00;97869.88;109402;1253;67644;-68
2023/07/26 10:15:48;;;;;;;5.50;5.10;;;;;;;27.26;96.29;97873.89;109318;1253;72651;-69
2023/07/26 10:18:20;;;;;;;5.00;4.60;;;;;;;27.27;98.70;97875.77;109208;1253;60240;-69
2023/07/26 10:20:47;;;;;;;6.00;5.20;;;;;;;27.39;99.78;97865.66;109210;1253;59092;-69
2023/07/26 10:23:15;;;;;;;4.40;4.00;;;;;;;27.44;99.38;97866.65;109282;1253;73412;-67
2023/07/26 10:25:42;;;;;;;4.10;3.60;;;;;;;27.63;97.94;97858.78;109230;1252;67976;-69
2023/07/26 10:28:10;;;;;;;4.50;4.10;;;;;;;27.74;96.61;97854.45;109251;1253;71680;-68
2023/07/26 10:30:37;;;;;;;5.90;5.20;;;;;;;27.89;94.96;97851.85;109399;1254;59188;-68
2023/07/26 10:33:11;;;;;;;6.30;5.80;;;;;;;28.11;94.58;97850.83;109236;1253;60189;-69
2023/07/26 10:35:40;;;;;;;4.90;4.60;;;;;;;28.32;92.58;97838.04;109243;1253;74696;-69
2023/07/26 10:38:08;;;;;;;5.10;4.20;;;;;;;28.36;89.24;97835.71;109507;1253;67861;-69
2023/07/26 10:40:37;;;;;;;6.00;5.50;;;;;;;28.35;88.84;97830.77;109435;1257;71317;-68
2023/07/26 10:43:19;;;;;;;5.30;4.80;;;;;;;28.39;87.26;97829.21;109389;1253;59210;-68
2023/07/26 10:45:52;;;;;;;4.40;4.10;;;;;;;28.51;88.20;97827.53;109495;1253;60583;-68
2023/07/26 10:48:20;;;;;;;5.30;4.80;;;;;;;28.70;87.47;97823.71;109371;1252;75245;-68
2023/07/26 10:50:47;;;;;;;6.20;5.20;;;;;;;28.72;84.24;97822.08;109351;1253;66297;-68
2023/07/26 10:53:33;;;;;;;4.90;4.40;;;;;;;28.60;83.85;97820.61;109482;1253;74761;-68
2023/07/26 10:56:10;;;;;;;5.30;4.80;;;;;;;28.41;82.82;97822.98;109456;1253;59015;-68
2023/07/26 10:58:55;;;;;;;6.30;4.20;;;;;;;28.21;83.79;97816.73;109530;1253;60060;-69
2023/07/26 11:01:36;;;;;;;6.90;4.80;;;;;;;28.05;87.60;97818.45;109449;1253;74961;-68
2023/07/26 11:04:20;;;;;;;5.40;4.80;;;;;;;27.99;89.27;97815.25;109435;1253;68218;-68
2023/07/26 11:06:52;;;;;;;5.40;5.00;;;;;;;27.99;90.73;97814.99;109477;1253;72685;-69
2023/07/26 11:09:27;;;;;;;3.70;3.20;;;;;;;27.99;90.05;97811.73;109458;1255;59708;-69
2023/07/26 11:11:58;;;;;;;2.90;2.50;;;;;;;27.85;91.20;97806.11;109412;1254;60096;-68
2023/07/26 11:14:28;;;;;;;4.20;2.40;;;;;;;27.67;93.12;97790.38;109430;1253;73436;-69
2023/07/26 11:16:58;;;;;;;5.30;2.50;;;;;;;27.50;95.39;97786.55;109392;1253;67660;-69
2023/07/26 11:19:27;;;;;;;2.70;2.40;;;;;;;27.36;96.12;97801.34;109382;1255;72759;-71
2023/07/26 11:22:04;;;;;;;2.40;1.90;;;;;;;27.34;97.04;97807.05;109453;1253;58953;-69